FMEEFMCZ

Guest
Details From FMEE - St Denis Gillot
To FMCZ - Dzaoudzi Pamandzi
Flight Number -
Tags Generated
Created
Modified
Stats Distance 762 nm / 1,411 km
Max Altitude 0 ft / 0 m
Waypoints 3
Social Downloads 13
Likes 0
Share VATSIM

Download

Looking for another format? Having issues loading an existing format? Contact us
Advertisement - Login to hide

Notes

Generated

Route

FMEE FJO FMCZ

ID Type Via Altitude Latitude Longitude Leg Dist Tot Dist Heading (true) Name
O FMEE APT - 0 ft / 0 m -20.88418˚ 55.50412˚ - 0 nm - -
FJO NDB - 0 ft / 0 m -12.80189˚ 45.28194˚ 761 nm 761 nm 308° / 311° DZAOUDZI PAMANDZI NDB
O FMCZ APT - 0 ft / 0 m -12.80219˚ 45.27792˚ 0 nm 761 nm 266° / 266° -

Altitude Profile

Advertisement - Login to hide

Weather


0- 5 10 15 20 25 30 35+ Temperature / ° C

Clouds and Precipitation
Forecast for 2018-05-26 12:00 UTC. Updated 44 minutes ago

Ground ~20,000 ft ~40,000 ft Winds

FMEE

Details ICAO FMEE (RUN)
Name St Denis Gillot
Region Comoros, Mayotte, Réunion and Madagascar
Timezone Indian/Reunion (UTC+4.0)
Stats Elevation 66 ft / 20 m (AMSL)
Location -20.889313° 55.517752°
Runways 2
Magnetic Variation 18.965° W

METAR

FMEE 261200Z 11011KT 080V140 9999 FEW026 27/17 Q1016 NOSIG

Decode

TAF

TAF FMEE 261100Z 2612/2718 12015KT 9999 FEW026 SCT050 TEMPO 2618/2624 15005KT TEMPO 2700/2706 SHRA BECMG 2715/2717 16005KT

Decode

Departure Runways

ID Width Length Bearing (true) Bearing (mag) Surface Threshold Offset Overrun Length
12 148 ft / 45 m 10,581 ft / 3,225 m 102.26° 121.23° Asphalt 397 ft / 121 m 148 ft / 45 m
14 148 ft / 45 m 8,842 ft / 2,695 m 116.55° 135.52° Asphalt 338 ft / 103 m 98 ft / 30 m
30 148 ft / 45 m 10,581 ft / 3,225 m 282.25° 301.22° Asphalt 0 ft / 0 m 0 ft / 0 m
32 148 ft / 45 m 8,842 ft / 2,695 m 296.54° 315.51° Asphalt 1,175 ft / 358 m 377 ft / 115 m

FMCZ

Details ICAO FMCZ (DZA)
Name Dzaoudzi Pamandzi
Region Comoros, Mayotte, Réunion and Madagascar
Timezone Unknown (UTC+0.0)
Stats Elevation 23 ft / 7 m (AMSL)
Location -12.809439° 45.282224°
Runways 1
Magnetic Variation 8.144° W

METAR

FMCZ 261200Z 19007KT 9999 FEW026 29/21 Q1013 NOSIG

Decode

TAF

TAF FMCZ 261100Z 2612/2712 16012KT 9999 FEW020 TEMPO 2700/2706 SHRA SCT020TCU

Decode

Destination Runways

ID Width Length Bearing (true) Bearing (mag) Surface Threshold Offset Overrun Length
16 92 ft / 28 m 6,109 ft / 1,862 m 149.93° 158.07° Asphalt 250 ft / 76 m 250 ft / 76 m
34 92 ft / 28 m 6,109 ft / 1,862 m 329.93° 338.07° Asphalt 0 ft / 0 m 82 ft / 25 m

Popular Alternatives